Time;durP1;ratioP1;P1;durP2;ratioP2;P2;SDS_P1;SDS_P2;PMS_P1;PMS_P2;Temp;Humidity;BMP_temperature;BMP_pressure;BME280_temperature;BME280_humidity;BME280_pressure;Samples;Min_cycle;Max_cycle;Signal;HPM_P1;HPM_P2
2024/04/08 00:01:45;;;;;;;19.27;6.45;;;13.70;99.90;;;;;;4947081;28;20028;-84
2024/04/08 00:04:11;;;;;;;25.95;7.88;;;13.60;99.90;;;;;;4946444;28;20061;-84
2024/04/08 00:06:36;;;;;;;21.85;7.90;;;13.60;99.90;;;;;;4946087;28;20455;-84
2024/04/08 00:09:03;;;;;;;23.92;6.68;;;13.50;99.90;;;;;;4948096;28;20031;-84
2024/04/08 00:11:29;;;;;;;18.23;6.68;;;13.50;99.90;;;;;;4949104;28;20031;-84
2024/04/08 00:13:54;;;;;;;19.42;5.78;;;13.40;99.90;;;;;;4951118;28;20086;-83
2024/04/08 00:16:20;;;;;;;30.30;7.05;;;13.40;99.90;;;;;;4948074;28;20543;-84
2024/04/08 00:18:46;;;;;;;21.80;7.30;;;13.40;99.90;;;;;;4948585;28;20038;-84
2024/04/08 00:21:11;;;;;;;20.45;8.10;;;13.40;99.90;;;;;;4948313;28;21475;-84
2024/04/08 00:23:37;;;;;;;19.63;8.15;;;13.30;99.90;;;;;;4949774;28;20074;-84
2024/04/08 00:26:04;;;;;;;27.58;10.13;;;13.30;99.90;;;;;;4947608;28;20111;-83
2024/04/08 00:28:29;;;;;;;25.63;9.07;;;13.30;99.90;;;;;;4950096;28;20035;-84
2024/04/08 00:31:02;;;;;;;28.00;10.15;;;13.20;99.90;;;;;;4948065;28;20544;-84
2024/04/08 00:33:28;;;;;;;25.25;9.32;;;13.20;99.90;;;;;;4947959;28;20050;-84
2024/04/08 00:35:54;;;;;;;19.75;7.32;;;13.10;99.90;;;;;;4949071;28;20123;-84
2024/04/08 00:38:20;;;;;;;19.60;7.40;;;13.10;99.90;;;;;;4950071;28;20035;-84
2024/04/08 00:40:45;;;;;;;19.98;6.47;;;13.10;99.90;;;;;;4949150;28;20023;-84
2024/04/08 00:43:11;;;;;;;19.40;7.22;;;13.10;99.90;;;;;;4949582;28;20523;-84
2024/04/08 00:45:39;;;;;;;18.70;6.07;;;13.10;99.90;;;;;;4949091;28;20057;-84
2024/04/08 00:48:06;;;;;;;20.85;6.00;;;13.10;99.90;;;;;;4949597;28;20043;-84
2024/04/08 00:50:32;;;;;;;14.07;5.68;;;13.10;99.90;;;;;;4948291;28;20740;-84
2024/04/08 00:52:58;;;;;;;17.15;6.05;;;13.00;99.90;;;;;;4949522;28;20081;-84
2024/04/08 00:55:24;;;;;;;15.40;5.50;;;13.10;99.90;;;;;;4948711;28;21821;-84
2024/04/08 00:57:50;;;;;;;13.30;4.97;;;13.00;99.90;;;;;;4948632;28;21008;-84
2024/04/08 01:00:16;;;;;;;18.20;5.78;;;13.00;99.90;;;;;;4950205;28;20027;-84
2024/04/08 01:02:42;;;;;;;16.95;5.45;;;12.90;99.90;;;;;;4949295;28;21505;-84
2024/04/08 01:05:13;;;;;;;12.52;4.57;;;12.90;99.90;;;;;;4947709;28;20034;-83
2024/04/08 01:07:41;;;;;;;13.38;3.83;;;12.90;99.90;;;;;;4949299;28;20065;-84
2024/04/08 01:10:07;;;;;;;12.90;4.43;;;12.80;99.90;;;;;;4950520;28;20539;-84
2024/04/08 01:12:32;;;;;;;8.38;4.70;;;12.80;99.90;;;;;;4949234;28;20038;-85
2024/04/08 01:14:58;;;;;;;13.00;4.47;;;12.70;99.90;;;;;;4948938;28;20706;-84
2024/04/08 01:17:23;;;;;;;7.85;3.42;;;12.60;99.90;;;;;;4948214;28;20016;-84
2024/04/08 01:19:49;;;;;;;14.52;4.35;;;12.60;99.90;;;;;;4950092;28;20043;-83
2024/04/08 01:22:15;;;;;;;12.70;4.13;;;12.60;99.90;;;;;;4962203;28;20045;-84
2024/04/08 01:24:40;;;;;;;10.20;3.97;;;12.50;99.90;;;;;;4947191;28;20085;-84
2024/04/08 01:27:06;;;;;;;14.65;4.28;;;12.50;99.90;;;;;;4949394;28;20031;-85
2024/04/08 01:29:32;;;;;;;12.57;4.18;;;12.50;99.90;;;;;;4949211;28;20082;-85
2024/04/08 01:31:57;;;;;;;9.43;3.45;;;12.40;99.90;;;;;;4949176;28;20027;-83
2024/04/08 01:34:23;;;;;;;10.02;4.22;;;12.40;99.90;;;;;;4949726;28;20832;-85
2024/04/08 01:36:50;;;;;;;17.35;3.65;;;12.40;99.90;;;;;;4949110;28;20032;-85
2024/04/08 01:39:16;;;;;;;10.82;3.30;;;12.40;99.90;;;;;;4963711;28;20026;-85
2024/04/08 01:41:41;;;;;;;12.85;3.47;;;12.40;99.90;;;;;;4949633;28;20038;-84
2024/04/08 01:44:07;;;;;;;9.40;2.92;;;12.40;99.90;;;;;;4949180;28;20030;-85
2024/04/08 01:46:32;;;;;;;13.88;2.75;;;12.30;99.90;;;;;;4948538;28;20134;-84
2024/04/08 01:48:58;;;;;;;10.02;3.17;;;12.30;99.90;;;;;;4950038;28;20034;-85
2024/04/08 01:51:23;;;;;;;15.43;3.33;;;12.30;99.90;;;;;;4948788;28;20034;-85
2024/04/08 01:53:49;;;;;;;16.17;3.00;;;12.30;99.90;;;;;;4948692;28;20039;-85
2024/04/08 01:56:14;;;;;;;8.32;2.95;;;12.30;99.90;;;;;;4948506;28;20838;-85
2024/04/08 01:58:40;;;;;;;9.55;2.42;;;12.30;99.90;;;;;;4947433;28;20437;-85
2024/04/08 02:01:05;;;;;;;11.73;3.17;;;12.30;99.90;;;;;;4949079;28;21065;-84
2024/04/08 02:03:31;;;;;;;7.22;3.15;;;12.30;99.90;;;;;;4947458;28;20027;-85
2024/04/08 02:05:57;;;;;;;9.13;3.00;;;12.30;99.90;;;;;;4947393;28;20027;-84
2024/04/08 02:08:22;;;;;;;9.73;3.40;;;12.20;99.90;;;;;;4948150;28;20389;-85
2024/04/08 02:10:49;;;;;;;7.10;3.00;;;12.20;99.90;;;;;;4948427;28;20043;-84
2024/04/08 02:13:14;;;;;;;13.23;3.20;;;12.10;99.90;;;;;;4947968;28;20046;-84
2024/04/08 02:15:41;;;;;;;15.48;3.70;;;12.10;99.90;;;;;;4946989;28;20037;-85
2024/04/08 02:18:07;;;;;;;9.52;3.33;;;12.00;99.90;;;;;;4948431;28;20074;-84
2024/04/08 02:20:37;;;;;;;14.98;3.63;;;12.00;99.90;;;;;;4947940;28;20558;-85
2024/04/08 02:23:02;;;;;;;10.63;3.20;;;12.00;99.90;;;;;;4948787;28;20031;-84
2024/04/08 02:25:29;;;;;;;9.80;3.53;;;11.90;99.90;;;;;;4946381;28;20134;-85
2024/04/08 02:27:55;;;;;;;13.75;3.42;;;11.90;99.90;;;;;;4948648;28;20155;-85
2024/04/08 02:30:20;;;;;;;13.23;3.33;;;11.90;99.90;;;;;;4949527;28;20113;-85
2024/04/08 02:32:46;;;;;;;12.95;3.88;;;11.90;99.90;;;;;;4947863;28;20543;-85
2024/04/08 02:35:12;;;;;;;13.77;3.00;;;11.90;99.90;;;;;;4948748;28;20021;-84
2024/04/08 02:37:37;;;;;;;9.98;2.85;;;11.90;99.90;;;;;;4947264;28;20023;-84
2024/04/08 02:40:04;;;;;;;10.13;2.83;;;11.80;99.90;;;;;;4948709;28;20098;-85
2024/04/08 02:42:30;;;;;;;8.82;2.67;;;11.80;99.90;;;;;;4946207;28;20827;-83
2024/04/08 02:44:56;;;;;;;8.52;2.45;;;11.80;99.90;;;;;;4947529;28;20045;-84
2024/04/08 02:47:22;;;;;;;13.30;3.38;;;11.80;99.90;;;;;;4945734;28;21375;-84
2024/04/08 02:49:48;;;;;;;7.90;2.97;;;11.80;99.90;;;;;;4948713;28;20027;-84
2024/04/08 02:52:14;;;;;;;8.82;2.80;;;11.80;99.90;;;;;;4948107;28;20047;-85
2024/04/08 02:54:39;;;;;;;8.85;2.65;;;11.80;99.90;;;;;;4947926;28;20077;-84
2024/04/08 02:57:05;;;;;;;17.05;3.67;;;11.80;99.90;;;;;;4946407;28;20050;-84
2024/04/08 02:59:31;;;;;;;10.32;3.22;;;11.80;99.90;;;;;;4948102;28;20400;-84
2024/04/08 03:01:56;;;;;;;8.18;2.80;;;11.70;99.90;;;;;;4946752;28;20035;-84
2024/04/08 03:04:22;;;;;;;11.70;3.22;;;11.70;99.90;;;;;;4948796;28;20038;-84
2024/04/08 03:06:47;;;;;;;9.82;3.35;;;11.70;99.90;;;;;;4947857;28;20035;-84
2024/04/08 03:09:13;;;;;;;10.02;2.90;;;11.70;99.90;;;;;;4948020;28;20169;-85
2024/04/08 03:11:38;;;;;;;7.40;3.30;;;11.60;99.90;;;;;;4947852;28;20551;-84
2024/04/08 03:14:05;;;;;;;9.65;3.28;;;11.60;99.90;;;;;;4947802;28;20499;-85
2024/04/08 03:16:30;;;;;;;11.93;3.35;;;11.60;99.90;;;;;;4947548;28;20042;-85
2024/04/08 03:18:56;;;;;;;13.13;3.87;;;11.60;99.90;;;;;;4950282;28;20071;-84
2024/04/08 03:21:21;;;;;;;14.80;4.18;;;11.60;99.90;;;;;;4952480;28;20818;-84
2024/04/08 03:23:47;;;;;;;18.83;4.70;;;11.60;99.90;;;;;;4950564;28;20522;-84
2024/04/08 03:26:14;;;;;;;23.23;4.72;;;11.60;99.90;;;;;;4946364;28;20081;-84
2024/04/08 03:28:40;;;;;;;17.73;4.80;;;11.60;99.90;;;;;;4945307;28;20031;-84
2024/04/08 03:31:06;;;;;;;18.92;4.82;;;11.60;99.90;;;;;;4948864;28;20090;-84
2024/04/08 03:33:33;;;;;;;20.33;4.55;;;11.60;99.90;;;;;;4948614;28;20143;-84
2024/04/08 03:35:59;;;;;;;13.13;3.60;;;11.60;99.90;;;;;;4948880;28;20019;-85
2024/04/08 03:38:24;;;;;;;13.85;3.90;;;11.60;99.90;;;;;;4948909;28;20604;-84
2024/04/08 03:41:19;;;;;;;13.32;3.20;;;11.60;99.90;;;;;;4948033;28;20114;-84
2024/04/08 03:43:44;;;;;;;13.55;3.20;;;11.60;99.90;;;;;;4937337;28;20846;-85
2024/04/08 03:46:10;;;;;;;13.68;4.03;;;11.60;99.90;;;;;;4951666;28;20048;-84
2024/04/08 03:48:37;;;;;;;16.90;4.22;;;11.60;99.90;;;;;;4951646;28;20032;-84
2024/04/08 03:51:12;;;;;;;20.58;5.30;;;11.60;99.90;;;;;;4949602;28;20027;-84
2024/04/08 03:53:38;;;;;;;15.03;3.80;;;11.60;99.90;;;;;;4950189;28;20031;-84
2024/04/08 03:56:10;;;;;;;15.60;3.30;;;11.60;99.90;;;;;;4951566;28;20027;-84
2024/04/08 03:58:39;;;;;;;14.05;3.13;;;11.60;99.90;;;;;;4951791;28;20419;-84
2024/04/08 04:01:05;;;;;;;14.40;3.47;;;11.60;99.90;;;;;;4952372;28;20085;-85
2024/04/08 04:03:31;;;;;;;11.75;3.65;;;11.50;99.90;;;;;;4952622;28;20100;-84
2024/04/08 04:05:56;;;;;;;14.20;3.67;;;11.50;99.90;;;;;;4951948;28;20396;-85
2024/04/08 04:08:22;;;;;;;12.32;2.90;;;11.50;99.90;;;;;;4951634;28;20050;-84
2024/04/08 04:10:47;;;;;;;10.47;3.47;;;11.50;99.90;;;;;;4951602;28;20038;-85
2024/04/08 04:13:13;;;;;;;11.57;3.40;;;11.50;99.90;;;;;;4951694;28;20031;-84
2024/04/08 04:15:38;;;;;;;18.65;3.65;;;11.50;99.90;;;;;;4949711;28;20042;-85
2024/04/08 04:18:05;;;;;;;12.83;3.47;;;11.50;99.90;;;;;;4949744;28;20035;-84
2024/04/08 04:20:42;;;;;;;14.77;2.93;;;11.50;99.90;;;;;;4950686;28;20038;-85
2024/04/08 04:23:09;;;;;;;10.50;3.00;;;11.60;99.90;;;;;;4950292;28;20046;-84
2024/04/08 04:25:36;;;;;;;10.32;2.95;;;11.60;99.90;;;;;;4949522;28;20030;-85
2024/04/08 04:28:01;;;;;;;10.93;3.50;;;11.70;99.90;;;;;;4950252;28;20090;-85
2024/04/08 04:30:27;;;;;;;19.02;4.00;;;11.70;99.90;;;;;;4950410;28;20035;-84
2024/04/08 04:32:53;;;;;;;17.52;3.80;;;11.70;99.90;;;;;;4949767;28;20045;-85
2024/04/08 04:35:19;;;;;;;14.65;3.90;;;11.80;99.90;;;;;;4949585;28;20451;-84
2024/04/08 04:37:44;;;;;;;17.77;3.90;;;11.80;99.90;;;;;;4949939;28;20038;-85
2024/04/08 04:40:10;;;;;;;18.95;3.75;;;11.80;99.90;;;;;;4948718;28;20031;-84
2024/04/08 04:42:35;;;;;;;18.40;4.53;;;11.80;99.90;;;;;;4948169;28;20074;-83
2024/04/08 04:45:01;;;;;;;14.05;3.45;;;11.80;99.90;;;;;;4940604;28;20039;-84
2024/04/08 04:47:27;;;;;;;15.93;4.25;;;11.80;99.90;;;;;;4949521;28;20027;-85
2024/04/08 04:49:52;;;;;;;14.00;3.50;;;11.90;99.90;;;;;;4948982;28;20027;-85
2024/04/08 04:52:18;;;;;;;14.65;3.55;;;11.90;99.90;;;;;;4949586;28;20050;-84
2024/04/08 04:54:43;;;;;;;12.93;3.28;;;11.90;99.90;;;;;;4949435;28;20523;-85
2024/04/08 04:57:09;;;;;;;18.20;3.78;;;11.90;99.90;;;;;;4948330;28;20715;-84
2024/04/08 04:59:34;;;;;;;15.57;4.82;;;11.90;99.90;;;;;;4950388;28;20098;-85
2024/04/08 05:02:00;;;;;;;15.23;4.03;;;11.90;99.90;;;;;;4948591;28;20031;-84
2024/04/08 05:04:25;;;;;;;13.25;3.97;;;11.90;99.90;;;;;;4949447;28;20015;-85
2024/04/08 05:06:51;;;;;;;17.05;4.07;;;11.90;99.90;;;;;;4948000;28;20047;-86
2024/04/08 05:09:17;;;;;;;19.67;4.53;;;11.90;99.90;;;;;;4948086;28;20043;-86
2024/04/08 05:11:42;;;;;;;18.48;4.68;;;11.90;99.90;;;;;;4948598;28;20114;-85
2024/04/08 05:14:08;;;;;;;16.48;4.47;;;11.90;99.90;;;;;;4948191;28;21001;-85
2024/04/08 05:16:34;;;;;;;17.97;4.40;;;11.90;99.90;;;;;;4947947;28;20071;-85
2024/04/08 05:19:00;;;;;;;20.15;4.18;;;11.90;99.90;;;;;;4945579;28;20038;-85
2024/04/08 05:21:25;;;;;;;18.30;3.83;;;11.90;99.90;;;;;;4947179;28;20690;-85
2024/04/08 05:23:51;;;;;;;12.68;3.53;;;11.90;99.90;;;;;;4948638;28;20027;-85
2024/04/08 05:26:17;;;;;;;16.35;4.25;;;12.00;99.90;;;;;;4948722;28;20122;-84
2024/04/08 05:28:43;;;;;;;14.90;4.20;;;12.00;99.90;;;;;;4951305;28;20027;-84
2024/04/08 05:31:08;;;;;;;17.65;4.70;;;12.00;99.90;;;;;;4951539;28;20027;-83
2024/04/08 05:33:34;;;;;;;19.98;3.90;;;12.10;99.90;;;;;;4948731;28;20349;-85
2024/04/08 05:36:00;;;;;;;9.52;3.20;;;12.20;99.90;;;;;;4949652;28;20054;-84
2024/04/08 05:38:25;;;;;;;18.77;3.95;;;12.20;99.90;;;;;;4947393;28;20054;-80
2024/04/08 05:40:51;;;;;;;15.27;3.70;;;12.20;99.90;;;;;;4951472;28;20066;-81
2024/04/08 05:43:18;;;;;;;13.18;3.95;;;12.30;99.90;;;;;;4951602;28;20027;-79
2024/04/08 05:45:47;;;;;;;13.30;3.90;;;12.30;99.90;;;;;;4951887;28;20031;-80
2024/04/08 05:48:14;;;;;;;18.15;3.97;;;12.40;99.90;;;;;;4952409;28;20063;-80
2024/04/08 05:50:40;;;;;;;18.50;4.38;;;12.40;99.90;;;;;;4953065;28;20070;-80
2024/04/08 05:53:05;;;;;;;22.85;4.43;;;12.40;99.90;;;;;;4964010;28;20039;-80
2024/04/08 05:55:31;;;;;;;16.70;4.00;;;12.50;99.90;;;;;;4950586;28;20028;-81
2024/04/08 05:57:58;;;;;;;18.55;4.57;;;12.50;99.90;;;;;;4951548;28;20019;-79
2024/04/08 06:00:24;;;;;;;14.88;4.30;;;12.60;99.90;;;;;;4950923;28;20027;-81
2024/04/08 06:02:52;;;;;;;18.33;4.03;;;12.60;99.90;;;;;;4948775;28;20035;-82
2024/04/08 06:05:22;;;;;;;13.02;3.65;;;12.60;99.90;;;;;;4954819;28;20106;-81
2024/04/08 06:07:49;;;;;;;21.75;4.43;;;12.70;99.90;;;;;;4953956;28;20113;-83
2024/04/08 06:10:18;;;;;;;25.40;4.03;;;12.70;99.90;;;;;;4950423;28;20519;-86
2024/04/08 06:12:44;;;;;;;25.13;5.10;;;12.80;99.90;;;;;;4946928;28;20027;-86
2024/04/08 06:15:10;;;;;;;17.92;4.03;;;12.80;99.90;;;;;;4946650;28;21197;-85
2024/04/08 06:17:35;;;;;;;19.20;3.92;;;12.80;99.90;;;;;;4946987;28;20027;-86
2024/04/08 06:20:02;;;;;;;22.52;4.35;;;12.90;99.90;;;;;;4946410;28;20102;-86
2024/04/08 06:22:28;;;;;;;14.52;4.22;;;13.00;99.90;;;;;;4949114;28;20150;-87
2024/04/08 06:24:54;;;;;;;21.38;4.07;;;13.10;99.90;;;;;;4948168;28;20020;-85
2024/04/08 06:27:19;;;;;;;15.07;3.75;;;13.10;99.90;;;;;;4948920;28;20054;-86
2024/04/08 06:29:45;;;;;;;17.80;3.97;;;13.30;99.90;;;;;;4947933;28;20094;-86
2024/04/08 06:32:10;;;;;;;19.83;4.35;;;13.40;99.90;;;;;;4947231;28;20027;-86
2024/04/08 06:34:36;;;;;;;18.33;3.42;;;13.40;99.90;;;;;;4948300;28;20114;-86
2024/04/08 06:37:02;;;;;;;17.25;3.97;;;13.50;99.90;;;;;;4947929;28;20529;-86
2024/04/08 06:39:28;;;;;;;21.83;4.15;;;13.60;99.90;;;;;;4947654;28;20177;-86
2024/04/08 06:41:53;;;;;;;26.30;4.13;;;13.70;99.90;;;;;;4947336;28;20075;-86
2024/04/08 06:44:19;;;;;;;25.00;5.07;;;13.90;99.90;;;;;;4949413;28;20023;-86
2024/04/08 06:46:44;;;;;;;21.40;5.20;;;14.00;99.90;;;;;;4951133;28;20146;-86
2024/04/08 06:49:10;;;;;;;25.23;4.65;;;14.10;99.90;;;;;;4954682;28;20035;-87
2024/04/08 06:51:36;;;;;;;23.45;4.13;;;14.20;99.90;;;;;;4952785;28;20023;-86
2024/04/08 06:54:01;;;;;;;17.42;4.05;;;14.30;99.90;;;;;;4949939;28;20050;-86
2024/04/08 06:56:27;;;;;;;19.55;3.63;;;14.50;99.90;;;;;;4948413;28;20527;-86
2024/04/08 06:58:52;;;;;;;27.27;4.43;;;14.60;99.90;;;;;;4950246;28;20029;-86
2024/04/08 07:01:20;;;;;;;24.33;4.20;;;14.70;99.90;;;;;;4949954;28;21539;-86
2024/04/08 07:03:46;;;;;;;26.17;4.00;;;14.80;99.90;;;;;;4949475;28;20109;-87
2024/04/08 07:06:11;;;;;;;24.73;4.30;;;15.00;99.90;;;;;;4947466;28;20122;-86
2024/04/08 07:08:37;;;;;;;32.35;5.07;;;15.10;99.90;;;;;;4950792;28;20136;-86
2024/04/08 07:11:03;;;;;;;48.35;7.75;;;15.20;99.90;;;;;;4952282;28;20032;-85
2024/04/08 07:13:29;;;;;;;109.90;13.30;;;15.40;99.90;;;;;;4950954;28;20087;-85
2024/04/08 07:15:58;;;;;;;45.95;7.57;;;15.50;99.90;;;;;;4949992;28;20028;-86
2024/04/08 07:18:26;;;;;;;53.83;6.70;;;15.60;99.90;;;;;;4949745;28;20035;-86
2024/04/08 07:20:52;;;;;;;67.15;8.63;;;15.70;99.90;;;;;;4949977;28;20043;-86
2024/04/08 07:23:17;;;;;;;66.32;8.13;;;15.80;99.90;;;;;;4948487;28;20042;-86
2024/04/08 07:25:44;;;;;;;53.53;8.23;;;15.90;99.90;;;;;;4947519;28;20047;-86
2024/04/08 07:28:10;;;;;;;38.10;6.22;;;16.10;99.90;;;;;;4947817;28;20031;-85
2024/04/08 07:30:35;;;;;;;29.92;4.75;;;16.20;99.90;;;;;;4948435;28;20181;-87
2024/04/08 07:33:01;;;;;;;27.98;5.30;;;16.30;99.90;;;;;;4946794;28;20122;-86
2024/04/08 07:35:27;;;;;;;28.38;4.03;;;16.50;99.90;;;;;;4950540;28;20660;-86
2024/04/08 07:37:52;;;;;;;21.63;4.28;;;16.60;99.90;;;;;;4949603;28;20027;-86
2024/04/08 07:40:18;;;;;;;24.17;4.00;;;16.70;99.90;;;;;;4950614;28;20031;-86
2024/04/08 07:42:43;;;;;;;16.63;3.97;;;16.90;99.90;;;;;;4947519;28;20175;-86
2024/04/08 07:45:09;;;;;;;24.52;4.70;;;17.00;99.90;;;;;;4947127;28;20034;-87
2024/04/08 07:47:35;;;;;;;33.25;5.05;;;17.10;99.90;;;;;;4948770;28;20043;-86
2024/04/08 07:50:02;;;;;;;32.25;4.82;;;17.20;99.90;;;;;;4950442;28;20095;-86
2024/04/08 07:52:27;;;;;;;23.38;5.00;;;17.30;99.90;;;;;;4953741;28;20209;-86
2024/04/08 07:54:54;;;;;;;37.85;5.40;;;17.40;99.90;;;;;;4950740;28;20091;-88
2024/04/08 07:57:20;;;;;;;34.88;5.00;;;17.50;99.90;;;;;;4953982;28;20028;-87
2024/04/08 07:59:45;;;;;;;41.17;5.78;;;17.60;99.90;;;;;;4955039;28;20032;-87
2024/04/08 08:02:11;;;;;;;35.17;5.28;;;17.70;99.90;;;;;;4953444;28;20059;-87
2024/04/08 08:04:36;;;;;;;35.10;5.65;;;17.80;99.90;;;;;;4953802;28;20054;-87
2024/04/08 08:07:02;;;;;;;43.63;5.03;;;17.90;99.90;;;;;;4950907;28;20050;-87
2024/04/08 08:09:27;;;;;;;32.30;4.30;;;18.00;99.90;;;;;;4949677;28;20027;-87
2024/04/08 08:11:53;;;;;;;31.30;5.18;;;18.10;99.90;;;;;;4947322;28;20028;-87
2024/04/08 08:14:18;;;;;;;31.52;4.10;;;18.30;99.90;;;;;;4945603;28;20035;-87
2024/04/08 08:16:45;;;;;;;25.55;4.32;;;18.40;99.90;;;;;;4947529;28;20038;-87
2024/04/08 08:19:10;;;;;;;30.60;5.93;;;18.50;99.90;;;;;;4948810;28;20106;-87
2024/04/08 08:21:36;;;;;;;37.22;6.68;;;18.50;99.90;;;;;;4947892;28;20103;-87
2024/04/08 08:24:02;;;;;;;29.20;5.03;;;18.60;99.90;;;;;;4947089;28;20066;-87
2024/04/08 08:26:28;;;;;;;28.08;4.82;;;18.80;99.90;;;;;;4943968;28;20050;-87
2024/04/08 08:28:55;;;;;;;22.48;4.63;;;18.90;99.90;;;;;;4947397;28;20031;-88
2024/04/08 08:31:20;;;;;;;31.23;5.55;;;19.00;99.90;;;;;;4947945;28;20094;-89
2024/04/08 08:33:46;;;;;;;28.38;4.53;;;19.20;99.90;;;;;;4948446;28;20023;-89
2024/04/08 08:36:12;;;;;;;39.30;5.93;;;19.40;99.90;;;;;;4948801;28;20058;-88
2024/04/08 08:38:37;;;;;;;30.10;4.60;;;19.50;99.90;;;;;;4947067;28;20035;-88
2024/04/08 08:41:07;;;;;;;28.08;5.20;;;19.70;99.90;;;;;;4950493;28;20037;-88
2024/04/08 08:43:37;;;;;;;29.70;4.70;;;19.90;99.90;;;;;;4949359;28;20031;-88
2024/04/08 08:46:03;;;;;;;26.88;4.88;;;20.10;99.90;;;;;;4948543;28;20043;-90
2024/04/08 08:48:29;;;;;;;32.25;5.78;;;20.30;99.90;;;;;;4946382;28;20392;-89
2024/04/08 08:50:56;;;;;;;27.60;4.97;;;20.40;99.90;;;;;;4949272;28;20033;-87
2024/04/08 08:53:22;;;;;;;26.55;5.53;;;20.60;99.90;;;;;;4967220;28;20034;-86
2024/04/08 08:55:49;;;;;;;25.25;4.63;;;20.80;99.90;;;;;;4950310;28;20023;-85
2024/04/08 08:58:15;;;;;;;24.58;4.50;;;20.90;99.90;;;;;;4963641;28;20115;-87
2024/04/08 09:00:41;;;;;;;26.55;4.40;;;21.00;99.90;;;;;;4953181;28;20156;-87
2024/04/08 09:03:15;;;;;;;25.30;4.10;;;21.20;99.90;;;;;;4951364;28;20070;-86
2024/04/08 09:05:41;;;;;;;30.20;5.40;;;21.40;99.90;;;;;;4951608;28;20028;-86
2024/04/08 09:08:07;;;;;;;24.70;4.53;;;21.50;99.90;;;;;;4952938;28;20050;-86
2024/04/08 09:10:47;;;;;;;27.27;3.92;;;21.80;99.90;;;;;;4953355;28;20079;-86
2024/04/08 09:13:22;;;;;;;20.15;4.28;;;21.90;99.90;;;;;;4952194;28;20019;-87
2024/04/08 09:15:51;;;;;;;24.20;3.90;;;22.10;99.90;;;;;;4950424;28;20059;-87
2024/04/08 09:18:18;;;;;;;22.45;3.92;;;22.20;99.90;;;;;;4951472;28;20038;-87
2024/04/08 09:20:44;;;;;;;21.77;4.22;;;22.50;99.90;;;;;;4949565;28;20137;-87
2024/04/08 09:23:11;;;;;;;24.30;4.63;;;22.70;99.90;;;;;;4951398;28;20551;-87
2024/04/08 09:25:37;;;;;;;28.48;4.32;;;22.90;98.90;;;;;;4950265;28;20031;-87
2024/04/08 09:28:02;;;;;;;22.20;4.00;;;23.10;97.30;;;;;;4949715;28;20042;-88
2024/04/08 09:30:28;;;;;;;19.45;4.95;;;23.30;94.50;;;;;;4949379;28;20031;-87
2024/04/08 09:32:54;;;;;;;24.20;4.72;;;23.50;98.40;;;;;;4948077;28;20430;-88
2024/04/08 09:35:20;;;;;;;24.20;4.15;;;23.70;96.90;;;;;;4949713;28;20042;-87
2024/04/08 09:37:47;;;;;;;25.77;4.68;;;23.80;96.00;;;;;;4950122;28;20034;-87
2024/04/08 09:40:14;;;;;;;37.35;5.40;;;23.90;93.90;;;;;;4951609;28;20432;-87
2024/04/08 09:42:41;;;;;;;25.55;5.05;;;24.00;96.50;;;;;;4952615;28;20591;-87
2024/04/08 09:45:09;;;;;;;26.92;4.35;;;24.20;93.20;;;;;;4951100;28;20400;-86
2024/04/08 09:47:37;;;;;;;31.13;4.88;;;24.40;93.60;;;;;;4950805;28;20122;-86
2024/04/08 09:50:04;;;;;;;22.20;4.20;;;24.50;93.90;;;;;;4950464;28;20065;-87
2024/04/08 09:52:30;;;;;;;34.22;5.32;;;24.60;93.40;;;;;;4949027;28;20031;-88
2024/04/08 09:54:56;;;;;;;33.25;5.35;;;24.80;91.80;;;;;;4949907;28;20075;-87
2024/04/08 09:57:29;;;;;;;25.15;4.57;;;24.80;93.60;;;;;;4948090;28;20070;-88
2024/04/08 09:59:58;;;;;;;31.10;5.22;;;25.00;92.20;;;;;;4948449;28;20464;-87
2024/04/08 10:02:42;;;;;;;24.98;4.20;;;25.10;92.30;;;;;;4949129;28;20125;-87
2024/04/08 10:05:07;;;;;;;19.13;4.40;;;25.20;92.90;;;;;;4949429;28;21459;-87
2024/04/08 10:07:34;;;;;;;28.00;4.88;;;25.20;92.90;;;;;;4949015;28;20261;-87
2024/04/08 10:10:02;;;;;;;31.60;5.25;;;25.20;91.10;;;;;;4949106;28;20027;-87
2024/04/08 10:12:31;;;;;;;35.72;4.90;;;25.30;91.60;;;;;;4950825;28;20023;-87
2024/04/08 10:15:11;;;;;;;32.90;4.97;;;25.50;88.50;;;;;;4952930;28;20027;-87
2024/04/08 10:17:37;;;;;;;28.08;5.32;;;25.60;90.70;;;;;;4953889;28;20023;-86
2024/04/08 10:20:06;;;;;;;34.35;5.28;;;25.60;90.00;;;;;;4951558;28;20439;-85
2024/04/08 10:22:39;;;;;;;34.95;5.18;;;25.70;90.00;;;;;;4947238;28;20110;-85
2024/04/08 10:25:28;;;;;;;33.70;5.20;;;25.70;90.50;;;;;;4946801;28;20069;-85
2024/04/08 10:28:09;;;;;;;24.40;5.05;;;25.80;92.90;;;;;;4946566;28;20134;-76
2024/04/08 10:30:37;;;;;;;41.55;6.82;;;25.90;87.80;;;;;;4945833;28;20020;-77
2024/04/08 10:33:04;;;;;;;32.38;5.45;;;26.00;90.00;;;;;;4945963;28;20023;-77
2024/04/08 10:35:29;;;;;;;35.08;5.75;;;26.30;88.80;;;;;;4946147;28;20023;-77
2024/04/08 10:37:55;;;;;;;34.13;5.40;;;26.40;87.70;;;;;;4946071;28;20113;-77
2024/04/08 10:40:21;;;;;;;35.35;5.57;;;26.40;87.50;;;;;;4946179;28;20028;-77
2024/04/08 10:44:09;;;;;;;33.92;6.20;;;26.50;88.90;;;;;;5508824;25;20515;-77
2024/04/08 10:46:34;;;;;;;38.70;5.68;;;26.40;87.50;;;;;;5503597;25;20013;-77
2024/04/08 10:49:06;;;;;;;30.08;4.43;;;26.40;89.40;;;;;;5507838;25;19997;-76
2024/04/08 10:51:31;;;;;;;31.33;5.10;;;26.40;90.40;;;;;;5507306;25;20006;-77
2024/04/08 10:53:57;;;;;;;30.35;5.22;;;26.30;87.50;;;;;;5505379;25;20056;-77
2024/04/08 10:56:23;;;;;;;37.72;6.82;;;26.50;89.20;;;;;;5507594;25;20755;-77
2024/04/08 10:58:50;;;;;;;33.90;4.88;;;26.70;86.70;;;;;;5508921;25;20066;-77
2024/04/08 11:01:16;;;;;;;37.70;5.50;;;26.80;85.70;;;;;;5506616;25;20071;-76
2024/04/08 11:03:42;;;;;;;31.38;6.20;;;27.10;88.20;;;;;;5505853;25;20016;-77
2024/04/08 11:06:07;;;;;;;32.92;7.13;;;27.20;88.80;;;;;;5507055;25;20066;-77
2024/04/08 11:08:33;;;;;;;32.78;6.07;;;27.40;89.90;;;;;;5506928;25;20764;-77
2024/04/08 11:10:59;;;;;;;31.70;5.00;;;27.50;87.30;;;;;;5508188;25;20468;-77
2024/04/08 11:13:25;;;;;;;39.60;5.82;;;27.40;86.40;;;;;;5507368;25;20481;-77
2024/04/08 11:15:51;;;;;;;32.75;6.32;;;27.30;87.10;;;;;;5506977;25;21206;-77
2024/04/08 11:18:20;;;;;;;32.10;5.50;;;27.40;89.00;;;;;;5505735;25;20009;-77
2024/04/08 11:20:46;;;;;;;47.38;6.20;;;27.40;86.40;;;;;;5506286;25;20005;-77
2024/04/08 11:23:13;;;;;;;27.40;5.68;;;27.20;88.10;;;;;;5506894;25;20016;-77
2024/04/08 11:25:39;;;;;;;38.60;6.00;;;27.20;90.90;;;;;;5500241;25;20012;-77
2024/04/08 11:28:05;;;;;;;36.17;6.25;;;27.30;91.30;;;;;;5505661;25;20006;-77
2024/04/08 11:30:35;;;;;;;33.00;5.75;;;27.50;89.90;;;;;;5503720;25;20002;-77
2024/04/08 11:33:02;;;;;;;43.17;6.20;;;27.50;87.30;;;;;;5504929;25;20005;-78
2024/04/08 11:35:29;;;;;;;27.40;6.68;;;27.60;87.50;;;;;;5505509;25;20021;-77
2024/04/08 11:37:54;;;;;;;28.73;5.60;;;27.60;90.00;;;;;;5507879;25;20103;-77
2024/04/08 11:40:20;;;;;;;34.83;5.97;;;27.70;88.90;;;;;;5506225;25;20009;-77
2024/04/08 11:42:45;;;;;;;35.47;6.10;;;27.80;89.60;;;;;;5505422;25;20027;-77
2024/04/08 11:45:12;;;;;;;36.58;7.18;;;27.90;90.90;;;;;;5504794;25;20006;-77
2024/04/08 11:47:38;;;;;;;32.45;5.75;;;28.10;84.60;;;;;;5504206;25;20349;-77
2024/04/08 11:50:04;;;;;;;36.65;5.72;;;28.10;87.30;;;;;;5506571;25;20024;-77
2024/04/08 11:52:30;;;;;;;39.40;6.28;;;28.10;86.90;;;;;;5505807;25;20078;-77
2024/04/08 11:54:55;;;;;;;35.70;5.57;;;28.30;86.20;;;;;;5492927;25;20010;-77
2024/04/08 11:57:21;;;;;;;30.83;5.72;;;28.40;86.40;;;;;;5485356;26;20017;-77
2024/04/08 11:59:47;;;;;;;37.20;7.03;;;28.40;81.80;;;;;;5488628;26;20002;-77
2024/04/08 12:02:12;;;;;;;40.40;6.88;;;28.40;82.70;;;;;;5488298;26;20009;-77
2024/04/08 12:04:43;;;;;;;47.08;7.28;;;28.40;83.60;;;;;;5483170;26;20051;-77
2024/04/08 12:07:09;;;;;;;36.45;6.93;;;28.40;83.60;;;;;;5486103;26;20350;-77
2024/04/08 12:09:36;;;;;;;35.75;6.95;;;28.50;85.20;;;;;;5488825;25;20013;-77
2024/04/08 12:12:02;;;;;;;32.60;6.18;;;28.60;83.40;;;;;;5491447;25;20010;-78
2024/04/08 12:14:28;;;;;;;35.50;6.75;;;28.60;84.20;;;;;;5487767;26;20029;-77
2024/04/08 12:16:54;;;;;;;42.25;8.07;;;28.80;83.20;;;;;;5489253;26;20005;-77
2024/04/08 12:19:19;;;;;;;47.85;7.65;;;28.70;83.20;;;;;;5488949;25;20017;-77
2024/04/08 12:21:45;;;;;;;30.70;5.28;;;28.70;82.40;;;;;;5488817;26;20001;-77
2024/04/08 12:24:10;;;;;;;34.08;6.22;;;28.70;81.80;;;;;;5489477;26;20013;-77
2024/04/08 12:26:36;;;;;;;23.02;5.00;;;28.80;84.00;;;;;;5487667;25;19998;-77
2024/04/08 12:29:03;;;;;;;34.45;5.25;;;29.00;81.50;;;;;;5488883;26;21182;-77
2024/04/08 12:31:28;;;;;;;32.65;6.50;;;28.80;80.30;;;;;;5489394;26;20451;-77
2024/04/08 12:33:54;;;;;;;41.58;6.57;;;28.60;81.80;;;;;;5488687;26;20017;-77
2024/04/08 12:36:19;;;;;;;33.05;6.13;;;28.60;78.80;;;;;;5487201;26;20085;-76